Strona główna
METAR-TAF:

METAR-TAF

Lotnisko :

Boscombe Down, Anglia

Szerokość geograficzna: 51-10N, Długość geograficzna: 001-45W, wysokość: 124 m

Aktualna obserwacja pogody

Raport powstał 45 minut temu, godzina 04:50 UTC
Wiatr 6 kt od północno-północny wschód
Temperatura 11°C
Wilgotność 76%
Ciśnienie 1022 hPa

METAR: EGDM 010450Z AUTO 02006KT //// NCD 11/07 Q1022

czas: 06:35 (05:35 UTC)


TAF: brakujący

Obserwacja i prognoza pogody dla ponad 4000 lotnisk (raport METAR i TAF).

Dostępne stacje oznaczono żółtymi i czerwonymi punktami na mapie.

Najedź kursorem aby zobaczyć nazwę stacji.

Kliknij aby zobaczyć obserwacje i prognozy pogody.

Aby zmienić mapę: kliknij na zielony przycisk z czarnym krzyżykiem, aby powiększyć; na zielony przycisk z myślnikiem, aby pomniejszyć; na zielone strzałki, aby przejść do map sąsiednich.


METAR-TAF: